TimeCET,TemperatureF,Dew PointF,Humidity,Sea Level PressureIn,VisibilityMPH,Wind Direction,Wind SpeedMPH,Gust SpeedMPH,PrecipitationIn,Events,Conditions,WindDirDegrees,DateUTC
12:15 AM,39.2,33.8,81,29.89,6.2,East,8.1,-,N/A,,Partly Cloudy,100,2013-02-20 23:15:00
12:45 AM,39.2,33.8,81,29.89,-9999.0,ESE,9.2,-,N/A,,Clear,110,2013-02-20 23:45:00
1:15 AM,39.2,33.8,81,29.89,-9999.0,ESE,9.2,-,N/A,,Clear,110,2013-02-21 00:15:00
1:45 AM,39.2,33.8,81,29.89,-9999.0,SE,2.3,-,N/A,,Clear,130,2013-02-21 00:45:00
2:15 AM,39.2,33.8,81,29.89,-9999.0,ESE,2.3,-,N/A,,Clear,120,2013-02-21 01:15:00
2:45 AM,37.4,33.8,87,29.86,-9999.0,North,1.2,-,N/A,,Clear,350,2013-02-21 01:45:00
3:15 AM,37.4,32.0,81,29.83,-9999.0,Calm,Calm,-,N/A,,Clear,0,2013-02-21 02:15:00
3:45 AM,35.6,33.8,93,29.83,-9999.0,ENE,1.2,-,N/A,,Clear,60,2013-02-21 02:45:00
4:15 AM,35.6,32.0,87,29.83,-9999.0,NE,1.2,-,N/A,,Clear,50,2013-02-21 03:15:00
4:45 AM,35.6,32.0,87,29.80,-9999.0,Calm,Calm,-,N/A,,Clear,0,2013-02-21 03:45:00
5:15 AM,35.6,32.0,87,29.80,-9999.0,NE,1.2,-,N/A,,Clear,50,2013-02-21 04:15:00
5:45 AM,33.8,32.0,93,29.80,-9999.0,North,1.2,-,N/A,,Clear,10,2013-02-21 04:45:00
6:15 AM,33.8,32.0,93,29.80,-9999.0,NE,2.3,-,N/A,,Clear,50,2013-02-21 05:15:00
6:45 AM,33.8,32.0,93,29.77,-9999.0,NE,2.3,-,N/A,,Clear,40,2013-02-21 05:45:00
7:15 AM,33.8,32.0,93,29.77,5.0,NE,1.2,-,N/A,,Unknown,40,2013-02-21 06:15:00
7:45 AM,33.8,32.0,93,29.80,5.0,ENE,3.5,-,N/A,,Scattered Clouds,60,2013-02-21 06:45:00
8:15 AM,35.6,33.8,93,29.80,4.3,NE,2.3,-,N/A,,Unknown,50,2013-02-21 07:15:00
8:45 AM,37.4,33.8,87,29.80,5.0,NNE,2.3,-,N/A,,Partly Cloudy,30,2013-02-21 07:45:00
9:15 AM,39.2,35.6,87,29.80,5.0,North,2.3,-,N/A,,Partly Cloudy,10,2013-02-21 08:15:00
9:45 AM,41.0,35.6,81,29.80,6.2,NE,2.3,-,N/A,,Partly Cloudy,40,2013-02-21 08:45:00
10:15 AM,48.2,37.4,66,29.80,6.2,NE,2.3,-,N/A,,Partly Cloudy,40,2013-02-21 09:15:00
10:45 AM,48.2,35.6,62,29.80,6.2,NE,2.3,-,N/A,,Partly Cloudy,40,2013-02-21 09:45:00
11:15 AM,50.0,33.8,54,29.80,6.2,WNW,1.2,-,N/A,,Partly Cloudy,300,2013-02-21 10:15:00
11:45 AM,50.0,33.8,54,29.80,6.2,WNW,1.2,-,N/A,,Partly Cloudy,290,2013-02-21 10:45:00
12:15 PM,51.8,32.0,47,29.77,6.2,WNW,1.2,-,N/A,,Partly Cloudy,300,2013-02-21 11:15:00
12:45 PM,53.6,33.8,47,29.74,6.2,West,3.5,-,N/A,,Partly Cloudy,280,2013-02-21 11:45:00
1:15 PM,53.6,32.0,44,29.74,6.2,NNW,3.5,-,N/A,,Partly Cloudy,340,2013-02-21 12:15:00
1:45 PM,55.4,32.0,41,29.74,6.2,East,2.3,-,N/A,,Partly Cloudy,90,2013-02-21 12:45:00
2:15 PM,55.4,32.0,41,29.71,6.2,SW,5.8,-,N/A,,Scattered Clouds,230,2013-02-21 13:15:00
2:45 PM,53.6,33.8,47,29.71,6.2,WSW,5.8,-,N/A,,Scattered Clouds,250,2013-02-21 13:45:00
3:15 PM,55.4,37.4,51,29.71,6.2,South,4.6,-,N/A,,Scattered Clouds,190,2013-02-21 14:15:00
3:45 PM,55.4,35.6,47,29.71,6.2,WSW,9.2,-,N/A,,Scattered Clouds,240,2013-02-21 14:45:00
4:15 PM,51.8,37.4,58,29.71,6.2,SW,8.1,-,N/A,,Scattered Clouds,230,2013-02-21 15:15:00
4:45 PM,50.0,35.6,58,29.71,6.2,SW,4.6,-,N/A,,Scattered Clouds,230,2013-02-21 15:45:00
5:15 PM,50.0,39.2,66,29.71,6.2,WSW,4.6,-,N/A,,Scattered Clouds,240,2013-02-21 16:15:00
5:45 PM,50.0,39.2,66,29.71,6.2,WSW,5.8,-,N/A,,Scattered Clouds,240,2013-02-21 16:45:00
6:15 PM,50.0,39.2,66,29.71,6.2,SSW,4.6,-,N/A,,Scattered Clouds,200,2013-02-21 17:15:00
6:45 PM,50.0,39.2,66,29.68,6.2,South,3.5,-,N/A,,Scattered Clouds,190,2013-02-21 17:45:00
7:15 PM,46.4,39.2,76,29.68,6.2,SSE,4.6,-,N/A,,Scattered Clouds,160,2013-02-21 18:15:00
7:45 PM,46.4,39.2,76,29.68,6.2,SSE,6.9,-,N/A,,Scattered Clouds,150,2013-02-21 18:45:00
8:15 PM,46.4,39.2,76,29.68,6.2,SSE,4.6,-,N/A,,Scattered Clouds,160,2013-02-21 19:15:00
8:45 PM,46.4,39.2,76,29.68,6.2,SSE,5.8,-,N/A,,Scattered Clouds,150,2013-02-21 19:45:00
9:15 PM,46.4,39.2,76,29.68,6.2,SSE,8.1,-,N/A,,Scattered Clouds,160,2013-02-21 20:15:00
9:45 PM,46.4,37.4,71,29.68,6.2,SSE,8.1,-,N/A,,Scattered Clouds,150,2013-02-21 20:45:00
10:15 PM,48.2,39.2,71,29.68,6.2,SSE,8.1,-,N/A,,Scattered Clouds,160,2013-02-21 21:15:00
10:45 PM,48.2,42.8,82,29.65,6.2,SSE,8.1,-,N/A,,Scattered Clouds,160,2013-02-21 21:45:00
11:15 PM,48.2,42.8,82,29.65,6.2,South,8.1,-,N/A,,Scattered Clouds,170,2013-02-21 22:15:00
11:45 PM,46.4,44.6,93,29.65,6.2,South,8.1,-,N/A,Rain,Light Rain,180,2013-02-21 22:45:00